sensor_id;sensor_type;location;lat;lon;timestamp;noise_LAeq;noise_LA_min;noise_LA_max;noise_LA01;noise_LA95
64545;Laerm;50936;51.660;5.616;2024-03-22T00:00:58;50.53;40.23;69.83;;
64545;Laerm;50936;51.660;5.616;2024-03-22T00:03:44;52.69;40.43;72.88;;
64545;Laerm;50936;51.660;5.616;2024-03-22T00:06:31;54.75;39.70;74.17;;
64545;Laerm;50936;51.660;5.616;2024-03-22T00:09:17;49.38;40.23;73.82;;
64545;Laerm;50936;51.660;5.616;2024-03-22T00:12:03;47.94;40.43;65.75;;
64545;Laerm;50936;51.660;5.616;2024-03-22T00:14:50;47.09;40.23;70.79;;
64545;Laerm;50936;51.660;5.616;2024-03-22T00:17:38;47.05;40.03;66.31;;
64545;Laerm;50936;51.660;5.616;2024-03-22T00:20:24;52.79;40.33;74.42;;
64545;Laerm;50936;51.660;5.616;2024-03-22T00:23:11;46.06;40.23;64.81;;
64545;Laerm;50936;51.660;5.616;2024-03-22T00:25:57;53.52;40.62;73.51;;
64545;Laerm;50936;51.660;5.616;2024-03-22T00:28:43;51.02;39.81;72.54;;
64545;Laerm;50936;51.660;5.616;2024-03-22T00:31:29;45.45;39.92;67.01;;
64545;Laerm;50936;51.660;5.616;2024-03-22T00:34:15;45.71;40.43;67.69;;
64545;Laerm;50936;51.660;5.616;2024-03-22T00:37:02;53.85;40.23;76.32;;
64545;Laerm;50936;51.660;5.616;2024-03-22T00:39:48;50.78;39.92;74.22;;
64545;Laerm;50936;51.660;5.616;2024-03-22T00:42:34;51.58;40.23;74.65;;
64545;Laerm;50936;51.660;5.616;2024-03-22T00:45:21;45.44;40.13;70.46;;
64545;Laerm;50936;51.660;5.616;2024-03-22T00:48:07;54.19;39.70;74.88;;
64545;Laerm;50936;51.660;5.616;2024-03-22T00:50:53;44.47;40.13;66.07;;
64545;Laerm;50936;51.660;5.616;2024-03-22T00:53:39;52.15;39.70;78.17;;
64545;Laerm;50936;51.660;5.616;2024-03-22T00:56:26;45.90;40.03;64.13;;
64545;Laerm;50936;51.660;5.616;2024-03-22T00:59:12;50.55;39.81;73.27;;
64545;Laerm;50936;51.660;5.616;2024-03-22T01:01:58;47.99;40.03;66.91;;
64545;Laerm;50936;51.660;5.616;2024-03-22T01:04:44;54.40;39.92;78.58;;
64545;Laerm;50936;51.660;5.616;2024-03-22T01:07:30;55.90;39.81;78.81;;
64545;Laerm;50936;51.660;5.616;2024-03-22T01:10:17;55.10;39.81;83.25;;
64545;Laerm;50936;51.660;5.616;2024-03-22T01:13:04;44.99;39.58;63.21;;
64545;Laerm;50936;51.660;5.616;2024-03-22T01:15:50;48.61;39.58;68.05;;
64545;Laerm;50936;51.660;5.616;2024-03-22T01:18:37;52.48;39.78;72.53;;
64545;Laerm;50936;51.660;5.616;2024-03-22T01:21:23;53.10;40.03;75.02;;
64545;Laerm;50936;51.660;5.616;2024-03-22T01:24:11;47.66;37.70;69.45;;
64545;Laerm;50936;51.660;5.616;2024-03-22T01:26:57;53.70;39.21;71.87;;
64545;Laerm;50936;51.660;5.616;2024-03-22T01:29:43;47.47;39.21;71.42;;
64545;Laerm;50936;51.660;5.616;2024-03-22T01:32:29;48.59;39.81;68.29;;
64545;Laerm;50936;51.660;5.616;2024-03-22T01:35:16;54.42;38.95;76.76;;
64545;Laerm;50936;51.660;5.616;2024-03-22T01:38:02;52.60;40.80;67.98;;
64545;Laerm;50936;51.660;5.616;2024-03-22T01:40:48;49.29;38.95;73.35;;
64545;Laerm;50936;51.660;5.616;2024-03-22T01:43:35;46.30;39.34;60.12;;
64545;Laerm;50936;51.660;5.616;2024-03-22T01:46:21;53.27;39.70;79.62;;
64545;Laerm;50936;51.660;5.616;2024-03-22T01:49:12;53.50;39.46;75.04;;
64545;Laerm;50936;51.660;5.616;2024-03-22T01:51:59;50.31;39.08;69.38;;
64545;Laerm;50936;51.660;5.616;2024-03-22T01:54:46;54.88;39.46;72.87;;
64545;Laerm;50936;51.660;5.616;2024-03-22T01:57:33;48.76;38.60;70.73;;
64545;Laerm;50936;51.660;5.616;2024-03-22T02:00:20;51.29;38.81;71.96;;
64545;Laerm;50936;51.660;5.616;2024-03-22T02:03:06;49.53;39.21;72.86;;
64545;Laerm;50936;51.660;5.616;2024-03-22T02:05:52;52.79;39.70;77.81;;
64545;Laerm;50936;51.660;5.616;2024-03-22T02:08:40;49.65;38.67;76.01;;
64545;Laerm;50936;51.660;5.616;2024-03-22T02:11:28;58.32;38.67;85.13;;
64545;Laerm;50936;51.660;5.616;2024-03-22T02:14:15;45.86;39.08;66.49;;
64545;Laerm;50936;51.660;5.616;2024-03-22T02:17:01;48.40;39.34;67.37;;
64545;Laerm;50936;51.660;5.616;2024-03-22T02:19:47;57.86;39.35;80.60;;
64545;Laerm;50936;51.660;5.616;2024-03-22T02:22:33;57.44;39.35;78.43;;
64545;Laerm;50936;51.660;5.616;2024-03-22T02:25:19;58.85;39.08;82.18;;
64545;Laerm;50936;51.660;5.616;2024-03-22T02:28:06;49.24;38.95;68.42;;
64545;Laerm;50936;51.660;5.616;2024-03-22T02:30:52;53.08;38.67;77.58;;
64545;Laerm;50936;51.660;5.616;2024-03-22T02:33:38;61.79;39.46;82.07;;
64545;Laerm;50936;51.660;5.616;2024-03-22T02:36:26;53.61;39.46;75.38;;
64545;Laerm;50936;51.660;5.616;2024-03-22T02:39:12;50.42;39.70;81.26;;
64545;Laerm;50936;51.660;5.616;2024-03-22T02:41:59;54.97;38.37;78.46;;
64545;Laerm;50936;51.660;5.616;2024-03-22T02:44:45;64.68;39.81;88.19;;
64545;Laerm;50936;51.660;5.616;2024-03-22T02:47:31;62.35;39.23;86.96;;
64545;Laerm;50936;51.660;5.616;2024-03-22T02:50:17;58.68;39.21;81.86;;
64545;Laerm;50936;51.660;5.616;2024-03-22T02:53:05;55.24;39.58;75.92;;
64545;Laerm;50936;51.660;5.616;2024-03-22T02:55:52;56.27;39.81;77.33;;
64545;Laerm;50936;51.660;5.616;2024-03-22T02:58:38;55.50;39.58;79.67;;
64545;Laerm;50936;51.660;5.616;2024-03-22T03:01:24;61.70;39.58;83.38;;
64545;Laerm;50936;51.660;5.616;2024-03-22T03:04:11;58.42;39.58;78.25;;
64545;Laerm;50936;51.660;5.616;2024-03-22T03:06:57;61.22;39.92;80.61;;
64545;Laerm;50936;51.660;5.616;2024-03-22T03:09:43;61.20;39.21;83.69;;
64545;Laerm;50936;51.660;5.616;2024-03-22T03:12:29;63.75;40.71;84.55;;
64545;Laerm;50936;51.660;5.616;2024-03-22T03:15:17;53.37;39.58;77.71;;
64545;Laerm;50936;51.660;5.616;2024-03-22T03:18:04;54.74;40.03;73.99;;
64545;Laerm;50936;51.660;5.616;2024-03-22T03:20:50;58.88;39.81;78.95;;
64545;Laerm;50936;51.660;5.616;2024-03-22T03:23:36;55.43;38.95;77.66;;
64545;Laerm;50936;51.660;5.616;2024-03-22T03:26:22;52.88;39.92;75.76;;
64545;Laerm;50936;51.660;5.616;2024-03-22T03:29:09;53.89;40.13;77.85;;
64545;Laerm;50936;51.660;5.616;2024-03-22T03:31:55;58.07;40.33;78.60;;
64545;Laerm;50936;51.660;5.616;2024-03-22T03:34:42;59.34;40.23;80.56;;
64545;Laerm;50936;51.660;5.616;2024-03-22T03:37:28;61.52;40.71;84.93;;
64545;Laerm;50936;51.660;5.616;2024-03-22T03:40:14;58.45;40.33;78.86;;
64545;Laerm;50936;51.660;5.616;2024-03-22T03:43:01;65.04;40.53;85.74;;
64545;Laerm;50936;51.660;5.616;2024-03-22T03:45:47;57.48;41.14;78.42;;
64545;Laerm;50936;51.660;5.616;2024-03-22T03:48:33;54.81;39.21;73.71;;
64545;Laerm;50936;51.660;5.616;2024-03-22T03:51:19;65.65;40.98;90.16;;
64545;Laerm;50936;51.660;5.616;2024-03-22T03:54:05;54.68;40.80;79.12;;
64545;Laerm;50936;51.660;5.616;2024-03-22T03:56:51;57.87;39.81;81.90;;
64545;Laerm;50936;51.660;5.616;2024-03-22T03:59:37;54.78;40.62;76.91;;
64545;Laerm;50936;51.660;5.616;2024-03-22T04:02:24;68.74;40.71;89.31;;
64545;Laerm;50936;51.660;5.616;2024-03-22T04:05:10;65.66;40.89;91.12;;
64545;Laerm;50936;51.660;5.616;2024-03-22T04:07:56;62.55;41.14;84.08;;
64545;Laerm;50936;51.660;5.616;2024-03-22T04:10:52;61.61;40.88;81.61;;
64545;Laerm;50936;51.660;5.616;2024-03-22T04:13:38;64.02;40.13;83.94;;
64545;Laerm;50936;51.660;5.616;2024-03-22T04:16:24;49.43;40.62;67.83;;
64545;Laerm;50936;51.660;5.616;2024-03-22T04:19:10;61.25;41.06;79.68;;
64545;Laerm;50936;51.660;5.616;2024-03-22T04:21:57;59.66;41.06;80.63;;
64545;Laerm;50936;51.660;5.616;2024-03-22T04:24:43;56.39;41.82;77.46;;
64545;Laerm;50936;51.660;5.616;2024-03-22T04:27:29;58.93;42.16;78.94;;
64545;Laerm;50936;51.660;5.616;2024-03-22T04:30:15;65.59;41.96;89.86;;
64545;Laerm;50936;51.660;5.616;2024-03-22T04:33:02;64.10;42.09;84.35;;
64545;Laerm;50936;51.660;5.616;2024-03-22T04:35:48;61.18;43.04;83.70;;
64545;Laerm;50936;51.660;5.616;2024-03-22T04:38:34;55.87;42.53;72.70;;
64545;Laerm;50936;51.660;5.616;2024-03-22T04:41:20;62.45;42.09;83.63;;
64545;Laerm;50936;51.660;5.616;2024-03-22T04:44:06;66.21;42.98;88.80;;
64545;Laerm;50936;51.660;5.616;2024-03-22T04:46:52;67.01;42.22;86.71;;
64545;Laerm;50936;51.660;5.616;2024-03-22T04:49:39;64.50;42.53;88.58;;
64545;Laerm;50936;51.660;5.616;2024-03-22T04:52:25;64.32;42.35;86.49;;
64545;Laerm;50936;51.660;5.616;2024-03-22T04:55:11;64.94;42.09;88.43;;
64545;Laerm;50936;51.660;5.616;2024-03-22T04:57:57;65.29;43.24;82.44;;
64545;Laerm;50936;51.660;5.616;2024-03-22T05:00:44;66.28;42.59;87.59;;
64545;Laerm;50936;51.660;5.616;2024-03-22T05:03:31;69.10;42.82;91.90;;
64545;Laerm;50936;51.660;5.616;2024-03-22T05:06:17;66.48;42.29;84.18;;
64545;Laerm;50936;51.660;5.616;2024-03-22T05:09:03;58.51;43.34;79.85;;
64545;Laerm;50936;51.660;5.616;2024-03-22T05:11:49;64.79;42.98;86.72;;
64545;Laerm;50936;51.660;5.616;2024-03-22T05:14:36;67.22;44.54;88.80;;
64545;Laerm;50936;51.660;5.616;2024-03-22T05:17:22;62.01;43.04;84.42;;
64545;Laerm;50936;51.660;5.616;2024-03-22T05:20:09;64.65;43.54;81.88;;
64545;Laerm;50936;51.660;5.616;2024-03-22T05:22:56;63.66;42.53;87.31;;
64545;Laerm;50936;51.660;5.616;2024-03-22T05:25:43;64.49;41.68;85.63;;
64545;Laerm;50936;51.660;5.616;2024-03-22T05:28:29;61.99;43.72;84.44;;
64545;Laerm;50936;51.660;5.616;2024-03-22T05:31:16;62.23;44.15;87.77;;
64545;Laerm;50936;51.660;5.616;2024-03-22T05:34:02;67.76;43.39;91.48;;
64545;Laerm;50936;51.660;5.616;2024-03-22T05:36:48;70.57;44.54;94.88;;
64545;Laerm;50936;51.660;5.616;2024-03-22T05:39:35;64.16;45.39;88.14;;
64545;Laerm;50936;51.660;5.616;2024-03-22T05:42:21;66.12;44.62;87.85;;
64545;Laerm;50936;51.660;5.616;2024-03-22T05:45:08;64.87;44.51;84.40;;
64545;Laerm;50936;51.660;5.616;2024-03-22T05:47:54;70.18;43.72;90.67;;
64545;Laerm;50936;51.660;5.616;2024-03-22T05:50:41;63.67;43.19;88.66;;
64545;Laerm;50936;51.660;5.616;2024-03-22T05:53:27;65.30;45.33;86.88;;
64545;Laerm;50936;51.660;5.616;2024-03-22T05:56:13;67.25;43.90;85.58;;
64545;Laerm;50936;51.660;5.616;2024-03-22T05:59:00;65.76;43.34;85.70;;
64545;Laerm;50936;51.660;5.616;2024-03-22T06:01:46;64.02;44.80;82.43;;
64545;Laerm;50936;51.660;5.616;2024-03-22T06:04:33;61.04;43.77;83.92;;
64545;Laerm;50936;51.660;5.616;2024-03-22T06:07:19;59.68;44.27;79.04;;
64545;Laerm;50936;51.660;5.616;2024-03-22T06:10:06;55.83;43.72;75.61;;
64545;Laerm;50936;51.660;5.616;2024-03-22T06:12:52;65.81;43.94;89.35;;
64545;Laerm;50936;51.660;5.616;2024-03-22T06:15:38;63.07;44.03;84.94;;
64545;Laerm;50936;51.660;5.616;2024-03-22T06:18:26;62.12;45.97;79.18;;
64545;Laerm;50936;51.660;5.616;2024-03-22T06:21:12;63.90;45.99;82.76;;
64545;Laerm;50936;51.660;5.616;2024-03-22T06:24:01;64.67;44.73;86.43;;
64545;Laerm;50936;51.660;5.616;2024-03-22T06:26:47;61.86;45.89;83.35;;
64545;Laerm;50936;51.660;5.616;2024-03-22T06:29:36;59.30;46.20;74.46;;
64545;Laerm;50936;51.660;5.616;2024-03-22T06:32:22;58.79;47.16;75.20;;
64545;Laerm;50936;51.660;5.616;2024-03-22T06:35:09;62.01;46.13;83.01;;
64545;Laerm;50936;51.660;5.616;2024-03-22T06:37:55;58.94;44.23;78.00;;
64545;Laerm;50936;51.660;5.616;2024-03-22T06:40:41;62.76;45.91;81.52;;
64545;Laerm;50936;51.660;5.616;2024-03-22T06:43:27;61.29;45.30;82.55;;
64545;Laerm;50936;51.660;5.616;2024-03-22T06:46:13;62.53;47.00;83.92;;
64545;Laerm;50936;51.660;5.616;2024-03-22T06:49:00;62.73;46.35;84.98;;
64545;Laerm;50936;51.660;5.616;2024-03-22T06:51:46;59.64;45.57;82.45;;
64545;Laerm;50936;51.660;5.616;2024-03-22T06:54:33;68.65;45.17;90.98;;
64545;Laerm;50936;51.660;5.616;2024-03-22T06:57:19;70.26;48.21;86.18;;
64545;Laerm;50936;51.660;5.616;2024-03-22T07:00:06;74.54;47.02;96.51;;
64545;Laerm;50936;51.660;5.616;2024-03-22T07:02:56;71.82;45.54;95.53;;
64545;Laerm;50936;51.660;5.616;2024-03-22T07:05:42;61.77;46.45;79.06;;
64545;Laerm;50936;51.660;5.616;2024-03-22T07:08:29;66.61;46.33;90.50;;
64545;Laerm;50936;51.660;5.616;2024-03-22T07:11:15;70.59;44.87;89.56;;
64545;Laerm;50936;51.660;5.616;2024-03-22T07:14:01;66.99;46.71;87.37;;
64545;Laerm;50936;51.660;5.616;2024-03-22T07:16:48;61.84;47.12;83.99;;
64545;Laerm;50936;51.660;5.616;2024-03-22T07:19:34;67.47;50.12;91.35;;
64545;Laerm;50936;51.660;5.616;2024-03-22T07:22:21;61.92;50.17;83.18;;
64545;Laerm;50936;51.660;5.616;2024-03-22T07:25:08;69.11;48.16;89.45;;
64545;Laerm;50936;51.660;5.616;2024-03-22T07:27:57;60.34;48.23;83.27;;
64545;Laerm;50936;51.660;5.616;2024-03-22T07:30:43;67.82;49.97;89.36;;
64545;Laerm;50936;51.660;5.616;2024-03-22T07:33:31;71.47;47.55;91.62;;
64545;Laerm;50936;51.660;5.616;2024-03-22T07:36:17;62.88;48.76;82.97;;
64545;Laerm;50936;51.660;5.616;2024-03-22T07:39:05;62.95;48.25;81.19;;
64545;Laerm;50936;51.660;5.616;2024-03-22T07:41:55;61.31;50.20;79.41;;
64545;Laerm;50936;51.660;5.616;2024-03-22T07:44:42;75.10;50.83;93.51;;
64545;Laerm;50936;51.660;5.616;2024-03-22T07:47:28;72.08;50.58;93.98;;
64545;Laerm;50936;51.660;5.616;2024-03-22T07:50:14;66.58;49.52;87.57;;
64545;Laerm;50936;51.660;5.616;2024-03-22T07:53:01;67.52;48.76;89.96;;
64545;Laerm;50936;51.660;5.616;2024-03-22T07:55:47;69.00;48.91;88.71;;
64545;Laerm;50936;51.660;5.616;2024-03-22T07:58:34;63.95;49.29;81.81;;
64545;Laerm;50936;51.660;5.616;2024-03-22T08:01:20;66.77;48.64;87.89;;
64545;Laerm;50936;51.660;5.616;2024-03-22T08:04:06;67.33;49.52;89.12;;
64545;Laerm;50936;51.660;5.616;2024-03-22T08:06:52;64.51;45.97;85.29;;
64545;Laerm;50936;51.660;5.616;2024-03-22T08:09:38;71.69;45.91;91.83;;
64545;Laerm;50936;51.660;5.616;2024-03-22T08:12:26;66.74;47.28;85.71;;
64545;Laerm;50936;51.660;5.616;2024-03-22T08:15:12;70.14;48.84;90.20;;
64545;Laerm;50936;51.660;5.616;2024-03-22T08:17:58;64.05;48.18;87.12;;
64545;Laerm;50936;51.660;5.616;2024-03-22T08:20:44;61.28;47.48;78.20;;
64545;Laerm;50936;51.660;5.616;2024-03-22T08:23:30;72.42;47.84;92.31;;
64545;Laerm;50936;51.660;5.616;2024-03-22T08:26:17;67.85;47.20;88.83;;
64545;Laerm;50936;51.660;5.616;2024-03-22T08:29:05;73.14;52.44;97.38;;
64545;Laerm;50936;51.660;5.616;2024-03-22T08:31:51;63.99;52.78;79.77;;
64545;Laerm;50936;51.660;5.616;2024-03-22T08:34:37;62.59;49.58;82.33;;
64545;Laerm;50936;51.660;5.616;2024-03-22T08:37:23;65.68;50.02;86.14;;
64545;Laerm;50936;51.660;5.616;2024-03-22T08:42:57;68.47;56.54;89.68;;
64545;Laerm;50936;51.660;5.616;2024-03-22T08:45:43;62.16;49.98;79.46;;
64545;Laerm;50936;51.660;5.616;2024-03-22T08:48:29;62.82;50.32;73.99;;
64545;Laerm;50936;51.660;5.616;2024-03-22T08:51:15;68.32;48.94;92.83;;
64545;Laerm;50936;51.660;5.616;2024-03-22T08:54:02;70.56;54.44;88.19;;
64545;Laerm;50936;51.660;5.616;2024-03-22T08:56:48;64.08;51.05;83.36;;
64545;Laerm;50936;51.660;5.616;2024-03-22T08:59:34;63.06;48.61;81.64;;
64545;Laerm;50936;51.660;5.616;2024-03-22T09:02:21;61.25;49.51;75.61;;
64545;Laerm;50936;51.660;5.616;2024-03-22T09:05:07;61.48;48.36;79.96;;
64545;Laerm;50936;51.660;5.616;2024-03-22T09:07:54;60.14;45.75;76.91;;
64545;Laerm;50936;51.660;5.616;2024-03-22T09:10:42;64.11;48.64;83.91;;
64545;Laerm;50936;51.660;5.616;2024-03-22T09:13:29;61.44;49.66;78.04;;
64545;Laerm;50936;51.660;5.616;2024-03-22T09:16:15;60.26;49.35;78.80;;
64545;Laerm;50936;51.660;5.616;2024-03-22T09:19:01;65.72;49.80;83.66;;
64545;Laerm;50936;51.660;5.616;2024-03-22T09:21:48;71.69;47.79;91.42;;
64545;Laerm;50936;51.660;5.616;2024-03-22T09:24:34;61.08;45.42;79.14;;
64545;Laerm;50936;51.660;5.616;2024-03-22T09:27:20;61.29;50.65;79.12;;
64545;Laerm;50936;51.660;5.616;2024-03-22T09:30:07;66.95;49.16;87.28;;
64545;Laerm;50936;51.660;5.616;2024-03-22T09:32:53;62.77;50.75;80.76;;
64545;Laerm;50936;51.660;5.616;2024-03-22T09:35:39;63.08;49.95;80.16;;
64545;Laerm;50936;51.660;5.616;2024-03-22T09:38:26;62.58;48.07;84.60;;
64545;Laerm;50936;51.660;5.616;2024-03-22T09:41:14;67.30;49.23;89.36;;
64545;Laerm;50936;51.660;5.616;2024-03-22T09:44:02;67.84;50.88;85.85;;
64545;Laerm;50936;51.660;5.616;2024-03-22T09:46:51;68.84;48.18;91.55;;
64545;Laerm;50936;51.660;5.616;2024-03-22T09:49:38;67.93;47.70;87.74;;
64545;Laerm;50936;51.660;5.616;2024-03-22T09:52:24;65.75;49.47;85.48;;
64545;Laerm;50936;51.660;5.616;2024-03-22T09:55:11;72.63;48.70;93.54;;
64545;Laerm;50936;51.660;5.616;2024-03-22T09:57:58;68.02;52.14;90.54;;
64545;Laerm;50936;51.660;5.616;2024-03-22T10:00:44;66.80;47.24;87.95;;
64545;Laerm;50936;51.660;5.616;2024-03-22T10:03:31;64.43;48.31;83.62;;
64545;Laerm;50936;51.660;5.616;2024-03-22T10:06:17;60.37;47.08;81.03;;
64545;Laerm;50936;51.660;5.616;2024-03-22T10:09:05;58.02;47.98;74.44;;
64545;Laerm;50936;51.660;5.616;2024-03-22T10:11:51;58.32;48.66;78.78;;
64545;Laerm;50936;51.660;5.616;2024-03-22T10:14:37;61.28;48.98;79.64;;
64545;Laerm;50936;51.660;5.616;2024-03-22T10:17:29;67.24;48.42;86.51;;
64545;Laerm;50936;51.660;5.616;2024-03-22T10:20:15;64.54;48.02;88.27;;
64545;Laerm;50936;51.660;5.616;2024-03-22T10:23:01;67.57;49.98;87.08;;
64545;Laerm;50936;51.660;5.616;2024-03-22T10:25:48;63.16;49.43;83.67;;
64545;Laerm;50936;51.660;5.616;2024-03-22T10:28:34;62.09;49.63;77.79;;
64545;Laerm;50936;51.660;5.616;2024-03-22T10:31:20;64.53;50.94;85.19;;
64545;Laerm;50936;51.660;5.616;2024-03-22T10:34:09;63.45;48.94;83.17;;
64545;Laerm;50936;51.660;5.616;2024-03-22T10:36:59;66.89;47.42;86.98;;
64545;Laerm;50936;51.660;5.616;2024-03-22T10:39:50;63.40;49.52;82.74;;
64545;Laerm;50936;51.660;5.616;2024-03-22T10:42:38;66.15;50.07;85.47;;
64545;Laerm;50936;51.660;5.616;2024-03-22T10:45:25;69.48;51.76;89.70;;
64545;Laerm;50936;51.660;5.616;2024-03-22T10:48:19;61.45;48.73;79.15;;
64545;Laerm;50936;51.660;5.616;2024-03-22T10:51:07;64.57;51.62;83.00;;
64545;Laerm;50936;51.660;5.616;2024-03-22T10:53:56;60.45;52.36;80.38;;
64545;Laerm;50936;51.660;5.616;2024-03-22T10:56:45;66.70;50.28;89.17;;
64545;Laerm;50936;51.660;5.616;2024-03-22T10:59:35;64.34;49.40;82.16;;
64545;Laerm;50936;51.660;5.616;2024-03-22T11:02:25;64.14;49.28;84.73;;
64545;Laerm;50936;51.660;5.616;2024-03-22T11:05:17;67.40;48.39;85.44;;
64545;Laerm;50936;51.660;5.616;2024-03-22T11:08:06;70.49;52.03;92.83;;
64545;Laerm;50936;51.660;5.616;2024-03-22T11:10:54;61.57;51.91;81.73;;
64545;Laerm;50936;51.660;5.616;2024-03-22T11:13:41;61.86;48.83;86.41;;
64545;Laerm;50936;51.660;5.616;2024-03-22T11:16:27;65.34;51.17;88.39;;
64545;Laerm;50936;51.660;5.616;2024-03-22T11:19:14;65.09;47.62;84.49;;
64545;Laerm;50936;51.660;5.616;2024-03-22T11:22:00;64.00;49.88;93.08;;
64545;Laerm;50936;51.660;5.616;2024-03-22T11:24:46;64.32;47.88;91.65;;
64545;Laerm;50936;51.660;5.616;2024-03-22T11:27:32;62.49;49.91;81.67;;
64545;Laerm;50936;51.660;5.616;2024-03-22T11:30:19;62.12;50.54;78.92;;
64545;Laerm;50936;51.660;5.616;2024-03-22T11:33:05;62.36;50.92;80.16;;
64545;Laerm;50936;51.660;5.616;2024-03-22T11:35:51;61.63;49.56;90.93;;
64545;Laerm;50936;51.660;5.616;2024-03-22T11:38:38;63.89;51.29;82.36;;
64545;Laerm;50936;51.660;5.616;2024-03-22T11:41:28;62.02;50.86;84.72;;
64545;Laerm;50936;51.660;5.616;2024-03-22T11:44:17;63.00;51.19;80.34;;
64545;Laerm;50936;51.660;5.616;2024-03-22T11:47:04;64.12;48.95;87.06;;
64545;Laerm;50936;51.660;5.616;2024-03-22T11:49:51;60.52;50.93;75.52;;
64545;Laerm;50936;51.660;5.616;2024-03-22T11:52:37;61.39;50.08;81.58;;
64545;Laerm;50936;51.660;5.616;2024-03-22T11:55:27;63.43;49.06;81.56;;
64545;Laerm;50936;51.660;5.616;2024-03-22T11:58:13;60.86;47.79;79.80;;
64545;Laerm;50936;51.660;5.616;2024-03-22T12:01:00;59.17;50.82;74.79;;
64545;Laerm;50936;51.660;5.616;2024-03-22T12:03:47;60.14;49.06;75.53;;
64545;Laerm;50936;51.660;5.616;2024-03-22T12:06:36;63.48;50.30;82.68;;
64545;Laerm;50936;51.660;5.616;2024-03-22T12:09:22;61.14;48.15;76.91;;
64545;Laerm;50936;51.660;5.616;2024-03-22T12:12:12;60.43;49.87;86.11;;
64545;Laerm;50936;51.660;5.616;2024-03-22T12:14:58;60.78;50.85;78.48;;
64545;Laerm;50936;51.660;5.616;2024-03-22T12:17:45;61.37;51.93;81.82;;
64545;Laerm;50936;51.660;5.616;2024-03-22T12:20:31;62.48;50.21;75.23;;
64545;Laerm;50936;51.660;5.616;2024-03-22T12:23:18;58.26;48.84;72.20;;
64545;Laerm;50936;51.660;5.616;2024-03-22T12:26:04;59.77;49.75;74.03;;
64545;Laerm;50936;51.660;5.616;2024-03-22T12:28:50;59.48;48.74;73.71;;
64545;Laerm;50936;51.660;5.616;2024-03-22T12:31:40;58.32;50.13;68.26;;
64545;Laerm;50936;51.660;5.616;2024-03-22T12:34:26;58.85;49.11;78.13;;
64545;Laerm;50936;51.660;5.616;2024-03-22T12:37:13;63.44;48.34;92.22;;
64545;Laerm;50936;51.660;5.616;2024-03-22T12:40:00;65.02;48.49;91.32;;
64545;Laerm;50936;51.660;5.616;2024-03-22T12:42:46;60.49;48.61;76.30;;
64545;Laerm;50936;51.660;5.616;2024-03-22T12:45:32;62.50;48.54;83.43;;
64545;Laerm;50936;51.660;5.616;2024-03-22T12:48:18;65.87;50.37;83.24;;
64545;Laerm;50936;51.660;5.616;2024-03-22T12:51:07;63.64;51.00;82.55;;
64545;Laerm;50936;51.660;5.616;2024-03-22T12:53:53;57.90;49.43;69.19;;
64545;Laerm;50936;51.660;5.616;2024-03-22T12:56:39;59.77;49.52;75.42;;
64545;Laerm;50936;51.660;5.616;2024-03-22T12:59:25;63.32;48.34;83.64;;
64545;Laerm;50936;51.660;5.616;2024-03-22T13:02:12;60.26;48.90;79.45;;
64545;Laerm;50936;51.660;5.616;2024-03-22T13:04:58;58.33;48.20;75.57;;
64545;Laerm;50936;51.660;5.616;2024-03-22T13:07:45;65.42;51.08;83.44;;
64545;Laerm;50936;51.660;5.616;2024-03-22T13:10:31;70.39;50.56;91.63;;
64545;Laerm;50936;51.660;5.616;2024-03-22T13:13:18;61.57;50.74;82.37;;
64545;Laerm;50936;51.660;5.616;2024-03-22T13:16:05;60.84;50.40;81.06;;
64545;Laerm;50936;51.660;5.616;2024-03-22T13:18:52;59.85;52.45;79.24;;
64545;Laerm;50936;51.660;5.616;2024-03-22T13:21:39;66.38;53.18;83.90;;
64545;Laerm;50936;51.660;5.616;2024-03-22T13:24:25;65.88;48.83;84.64;;
64545;Laerm;50936;51.660;5.616;2024-03-22T13:27:11;61.85;50.05;78.14;;
64545;Laerm;50936;51.660;5.616;2024-03-22T13:29:58;60.04;50.75;76.19;;
64545;Laerm;50936;51.660;5.616;2024-03-22T13:32:44;59.56;49.66;74.03;;
64545;Laerm;50936;51.660;5.616;2024-03-22T13:35:31;62.97;51.87;81.98;;
64545;Laerm;50936;51.660;5.616;2024-03-22T13:38:19;62.12;52.67;76.05;;
64545;Laerm;50936;51.660;5.616;2024-03-22T13:41:05;61.47;50.48;79.58;;
64545;Laerm;50936;51.660;5.616;2024-03-22T13:43:52;58.56;50.21;67.38;;
64545;Laerm;50936;51.660;5.616;2024-03-22T13:46:38;61.93;51.72;83.67;;
64545;Laerm;50936;51.660;5.616;2024-03-22T13:49:27;65.71;53.93;85.48;;
64545;Laerm;50936;51.660;5.616;2024-03-22T13:52:14;61.93;52.78;82.91;;
64545;Laerm;50936;51.660;5.616;2024-03-22T13:55:04;61.99;50.89;82.40;;
64545;Laerm;50936;51.660;5.616;2024-03-22T13:57:50;65.08;54.17;82.57;;
64545;Laerm;50936;51.660;5.616;2024-03-22T14:00:37;61.96;54.38;75.80;;
64545;Laerm;50936;51.660;5.616;2024-03-22T14:03:23;60.68;55.22;71.19;;
64545;Laerm;50936;51.660;5.616;2024-03-22T14:06:09;62.13;54.97;80.04;;
64545;Laerm;50936;51.660;5.616;2024-03-22T14:08:55;60.34;53.33;71.42;;
64545;Laerm;50936;51.660;5.616;2024-03-22T14:11:46;60.94;54.57;77.42;;
64545;Laerm;50936;51.660;5.616;2024-03-22T14:14:35;61.46;54.37;71.18;;
64545;Laerm;50936;51.660;5.616;2024-03-22T14:17:21;61.23;52.31;72.12;;
64545;Laerm;50936;51.660;5.616;2024-03-22T14:20:08;60.67;53.92;78.71;;
64545;Laerm;50936;51.660;5.616;2024-03-22T14:23:00;62.14;54.16;75.00;;
64545;Laerm;50936;51.660;5.616;2024-03-22T14:25:46;61.54;53.90;71.49;;
64545;Laerm;50936;51.660;5.616;2024-03-22T14:28:34;61.36;53.09;71.18;;
64545;Laerm;50936;51.660;5.616;2024-03-22T14:31:22;61.39;53.79;68.95;;
64545;Laerm;50936;51.660;5.616;2024-03-22T14:34:09;61.63;53.57;69.96;;
64545;Laerm;50936;51.660;5.616;2024-03-22T14:36:55;61.88;52.41;69.52;;
64545;Laerm;50936;51.660;5.616;2024-03-22T14:39:41;61.58;55.31;69.05;;
64545;Laerm;50936;51.660;5.616;2024-03-22T14:42:29;60.00;52.11;73.28;;
64545;Laerm;50936;51.660;5.616;2024-03-22T14:45:16;62.10;54.43;70.40;;
64545;Laerm;50936;51.660;5.616;2024-03-22T14:48:07;61.20;53.39;72.74;;
64545;Laerm;50936;51.660;5.616;2024-03-22T14:50:53;61.28;54.18;76.46;;
64545;Laerm;50936;51.660;5.616;2024-03-22T14:53:39;61.41;51.40;74.39;;
64545;Laerm;50936;51.660;5.616;2024-03-22T14:56:26;60.67;54.87;70.53;;
64545;Laerm;50936;51.660;5.616;2024-03-22T14:59:12;61.46;53.44;69.09;;
64545;Laerm;50936;51.660;5.616;2024-03-22T15:01:58;59.82;51.09;68.72;;
64545;Laerm;50936;51.660;5.616;2024-03-22T15:04:44;60.07;48.78;75.12;;
64545;Laerm;50936;51.660;5.616;2024-03-22T15:07:31;60.45;53.64;67.40;;
64545;Laerm;50936;51.660;5.616;2024-03-22T15:10:17;60.03;51.68;68.34;;
64545;Laerm;50936;51.660;5.616;2024-03-22T15:13:03;60.46;52.65;74.81;;
64545;Laerm;50936;51.660;5.616;2024-03-22T15:15:57;60.40;50.89;73.94;;
64545;Laerm;50936;51.660;5.616;2024-03-22T15:18:45;60.11;54.43;71.38;;
64545;Laerm;50936;51.660;5.616;2024-03-22T15:21:31;60.32;51.23;70.90;;
64545;Laerm;50936;51.660;5.616;2024-03-22T15:24:18;61.10;51.97;82.79;;
64545;Laerm;50936;51.660;5.616;2024-03-22T15:27:05;61.12;55.13;65.94;;
64545;Laerm;50936;51.660;5.616;2024-03-22T15:29:53;60.46;53.56;77.42;;
64545;Laerm;50936;51.660;5.616;2024-03-22T15:32:44;60.15;53.67;72.35;;
64545;Laerm;50936;51.660;5.616;2024-03-22T15:35:31;61.26;53.20;68.31;;